sensor_id;sensor_type;location;lat;lon;timestamp;temperature;humidity
22532;DHT22;11432;46.924;7.114;2023-06-14T00:01:46;16.60;99.90
22532;DHT22;11432;46.924;7.114;2023-06-14T00:04:12;16.60;99.90
22532;DHT22;11432;46.924;7.114;2023-06-14T00:06:38;16.50;99.90
22532;DHT22;11432;46.924;7.114;2023-06-14T00:09:04;16.40;99.90
22532;DHT22;11432;46.924;7.114;2023-06-14T00:11:31;16.30;99.90
22532;DHT22;11432;46.924;7.114;2023-06-14T00:13:57;16.20;99.90
22532;DHT22;11432;46.924;7.114;2023-06-14T00:16:23;16.20;99.90
22532;DHT22;11432;46.924;7.114;2023-06-14T00:18:48;16.10;99.90
22532;DHT22;11432;46.924;7.114;2023-06-14T00:21:14;16.00;99.90
22532;DHT22;11432;46.924;7.114;2023-06-14T00:23:40;16.10;99.90
22532;DHT22;11432;46.924;7.114;2023-06-14T00:26:05;16.10;99.90
22532;DHT22;11432;46.924;7.114;2023-06-14T00:28:31;16.00;99.90
22532;DHT22;11432;46.924;7.114;2023-06-14T00:30:57;16.00;99.90
22532;DHT22;11432;46.924;7.114;2023-06-14T00:33:22;15.90;99.90
22532;DHT22;11432;46.924;7.114;2023-06-14T00:35:48;15.80;99.90
22532;DHT22;11432;46.924;7.114;2023-06-14T00:38:13;15.80;99.90
22532;DHT22;11432;46.924;7.114;2023-06-14T00:40:39;15.70;99.90
22532;DHT22;11432;46.924;7.114;2023-06-14T00:43:05;15.70;99.90
22532;DHT22;11432;46.924;7.114;2023-06-14T00:45:31;15.80;99.90
22532;DHT22;11432;46.924;7.114;2023-06-14T00:48:02;15.80;99.90
22532;DHT22;11432;46.924;7.114;2023-06-14T00:50:28;15.90;99.90
22532;DHT22;11432;46.924;7.114;2023-06-14T00:52:55;15.80;99.90
22532;DHT22;11432;46.924;7.114;2023-06-14T00:55:21;15.80;99.90
22532;DHT22;11432;46.924;7.114;2023-06-14T00:57:48;15.70;99.90
22532;DHT22;11432;46.924;7.114;2023-06-14T01:00:14;15.70;99.90
22532;DHT22;11432;46.924;7.114;2023-06-14T01:02:40;15.70;99.90
22532;DHT22;11432;46.924;7.114;2023-06-14T01:05:07;15.70;99.90
22532;DHT22;11432;46.924;7.114;2023-06-14T01:08:01;15.70;99.90
22532;DHT22;11432;46.924;7.114;2023-06-14T01:10:41;15.70;99.90
22532;DHT22;11432;46.924;7.114;2023-06-14T01:13:27;15.60;99.90
22532;DHT22;11432;46.924;7.114;2023-06-14T01:15:55;15.60;99.90
22532;DHT22;11432;46.924;7.114;2023-06-14T01:18:22;15.60;99.90
22532;DHT22;11432;46.924;7.114;2023-06-14T01:20:49;15.60;10.50
22532;DHT22;11432;46.924;7.114;2023-06-14T01:23:22;15.60;68.80
22532;DHT22;11432;46.924;7.114;2023-06-14T01:25:48;15.40;1.00
22532;DHT22;11432;46.924;7.114;2023-06-14T01:28:19;15.40;99.90
22532;DHT22;11432;46.924;7.114;2023-06-14T01:30:48;15.40;99.90
22532;DHT22;11432;46.924;7.114;2023-06-14T01:33:17;15.30;99.90
22532;DHT22;11432;46.924;7.114;2023-06-14T01:35:47;15.10;99.90
22532;DHT22;11432;46.924;7.114;2023-06-14T01:38:13;15.10;99.90
22532;DHT22;11432;46.924;7.114;2023-06-14T01:40:40;15.00;99.90
22532;DHT22;11432;46.924;7.114;2023-06-14T01:43:07;15.00;99.90
22532;DHT22;11432;46.924;7.114;2023-06-14T01:45:33;15.00;99.90
22532;DHT22;11432;46.924;7.114;2023-06-14T01:47:59;15.00;99.90
22532;DHT22;11432;46.924;7.114;2023-06-14T01:50:29;15.00;99.90
22532;DHT22;11432;46.924;7.114;2023-06-14T01:52:55;15.00;99.90
22532;DHT22;11432;46.924;7.114;2023-06-14T01:55:21;14.90;99.90
22532;DHT22;11432;46.924;7.114;2023-06-14T01:57:47;14.90;99.90
22532;DHT22;11432;46.924;7.114;2023-06-14T02:00:14;14.70;99.90
22532;DHT22;11432;46.924;7.114;2023-06-14T02:02:40;14.60;99.90
22532;DHT22;11432;46.924;7.114;2023-06-14T02:05:06;14.60;99.90
22532;DHT22;11432;46.924;7.114;2023-06-14T02:07:33;14.50;1.00
22532;DHT22;11432;46.924;7.114;2023-06-14T02:09:59;14.40;1.00
22532;DHT22;11432;46.924;7.114;2023-06-14T02:12:25;14.30;1.00
22532;DHT22;11432;46.924;7.114;2023-06-14T02:14:51;14.20;1.00
22532;DHT22;11432;46.924;7.114;2023-06-14T02:17:16;14.20;1.00
22532;DHT22;11432;46.924;7.114;2023-06-14T02:19:42;14.20;1.00
22532;DHT22;11432;46.924;7.114;2023-06-14T02:22:08;14.20;1.00
22532;DHT22;11432;46.924;7.114;2023-06-14T02:24:34;14.20;1.00
22532;DHT22;11432;46.924;7.114;2023-06-14T02:27:01;14.20;1.00
22532;DHT22;11432;46.924;7.114;2023-06-14T02:29:27;14.10;1.00
22532;DHT22;11432;46.924;7.114;2023-06-14T02:31:52;14.10;99.90
22532;DHT22;11432;46.924;7.114;2023-06-14T02:34:18;14.00;99.90
22532;DHT22;11432;46.924;7.114;2023-06-14T02:36:45;14.00;99.90
22532;DHT22;11432;46.924;7.114;2023-06-14T02:39:11;14.00;1.00
22532;DHT22;11432;46.924;7.114;2023-06-14T02:41:37;14.10;1.00
22532;DHT22;11432;46.924;7.114;2023-06-14T02:44:03;14.00;1.00
22532;DHT22;11432;46.924;7.114;2023-06-14T02:46:29;13.90;1.00
22532;DHT22;11432;46.924;7.114;2023-06-14T02:48:54;13.90;1.00
22532;DHT22;11432;46.924;7.114;2023-06-14T02:51:20;13.70;1.00
22532;DHT22;11432;46.924;7.114;2023-06-14T02:53:45;13.60;1.00
22532;DHT22;11432;46.924;7.114;2023-06-14T02:56:11;13.60;1.00
22532;DHT22;11432;46.924;7.114;2023-06-14T02:58:37;13.60;1.00
22532;DHT22;11432;46.924;7.114;2023-06-14T03:01:05;13.50;1.00
22532;DHT22;11432;46.924;7.114;2023-06-14T03:03:30;13.50;1.00
22532;DHT22;11432;46.924;7.114;2023-06-14T03:05:56;13.40;1.00
22532;DHT22;11432;46.924;7.114;2023-06-14T03:08:22;13.40;1.00
22532;DHT22;11432;46.924;7.114;2023-06-14T03:10:53;13.50;1.00
22532;DHT22;11432;46.924;7.114;2023-06-14T03:13:19;13.50;1.00
22532;DHT22;11432;46.924;7.114;2023-06-14T03:15:47;13.30;1.00
22532;DHT22;11432;46.924;7.114;2023-06-14T03:18:18;13.20;1.00
22532;DHT22;11432;46.924;7.114;2023-06-14T03:20:44;13.20;1.00
22532;DHT22;11432;46.924;7.114;2023-06-14T03:23:11;13.30;1.00
22532;DHT22;11432;46.924;7.114;2023-06-14T03:25:37;13.30;99.90
22532;DHT22;11432;46.924;7.114;2023-06-14T03:28:06;13.30;99.90
22532;DHT22;11432;46.924;7.114;2023-06-14T03:30:32;13.30;99.90
22532;DHT22;11432;46.924;7.114;2023-06-14T03:32:58;13.30;1.00
22532;DHT22;11432;46.924;7.114;2023-06-14T03:35:26;13.30;99.90
22532;DHT22;11432;46.924;7.114;2023-06-14T03:37:52;13.30;99.90
22532;DHT22;11432;46.924;7.114;2023-06-14T03:40:18;13.30;99.90
22532;DHT22;11432;46.924;7.114;2023-06-14T03:42:45;13.30;99.90
22532;DHT22;11432;46.924;7.114;2023-06-14T03:45:10;13.10;99.90
22532;DHT22;11432;46.924;7.114;2023-06-14T03:47:36;13.20;99.90
22532;DHT22;11432;46.924;7.114;2023-06-14T03:50:03;13.10;99.90
22532;DHT22;11432;46.924;7.114;2023-06-14T03:52:29;13.00;99.90
22532;DHT22;11432;46.924;7.114;2023-06-14T03:54:54;13.10;99.90
22532;DHT22;11432;46.924;7.114;2023-06-14T03:57:21;13.10;99.90
22532;DHT22;11432;46.924;7.114;2023-06-14T03:59:47;13.10;99.90
22532;DHT22;11432;46.924;7.114;2023-06-14T04:02:12;13.10;99.90
22532;DHT22;11432;46.924;7.114;2023-06-14T04:04:41;13.10;99.90
22532;DHT22;11432;46.924;7.114;2023-06-14T04:07:10;13.10;99.90
22532;DHT22;11432;46.924;7.114;2023-06-14T04:09:37;13.20;99.90
22532;DHT22;11432;46.924;7.114;2023-06-14T04:12:03;13.20;99.90
22532;DHT22;11432;46.924;7.114;2023-06-14T04:14:29;13.30;99.90
22532;DHT22;11432;46.924;7.114;2023-06-14T04:16:56;13.30;99.90
22532;DHT22;11432;46.924;7.114;2023-06-14T04:19:22;13.20;99.90
22532;DHT22;11432;46.924;7.114;2023-06-14T04:21:47;13.30;99.90
22532;DHT22;11432;46.924;7.114;2023-06-14T04:24:13;13.30;1.00
22532;DHT22;11432;46.924;7.114;2023-06-14T04:26:43;13.40;1.00
22532;DHT22;11432;46.924;7.114;2023-06-14T04:29:14;13.40;1.00
22532;DHT22;11432;46.924;7.114;2023-06-14T04:31:41;13.30;1.00
22532;DHT22;11432;46.924;7.114;2023-06-14T04:34:07;13.30;1.00
22532;DHT22;11432;46.924;7.114;2023-06-14T04:36:34;13.40;1.00
22532;DHT22;11432;46.924;7.114;2023-06-14T04:39:03;13.50;1.00
22532;DHT22;11432;46.924;7.114;2023-06-14T04:41:30;13.40;99.90
22532;DHT22;11432;46.924;7.114;2023-06-14T04:43:59;13.40;1.00
22532;DHT22;11432;46.924;7.114;2023-06-14T04:46:27;13.50;1.00
22532;DHT22;11432;46.924;7.114;2023-06-14T04:48:54;13.60;99.90
22532;DHT22;11432;46.924;7.114;2023-06-14T04:51:20;13.60;99.90
22532;DHT22;11432;46.924;7.114;2023-06-14T04:53:47;13.70;99.90
22532;DHT22;11432;46.924;7.114;2023-06-14T04:56:15;13.80;1.00
22532;DHT22;11432;46.924;7.114;2023-06-14T04:58:42;13.90;99.90
22532;DHT22;11432;46.924;7.114;2023-06-14T05:01:09;13.90;99.90
22532;DHT22;11432;46.924;7.114;2023-06-14T05:03:34;14.20;99.90
22532;DHT22;11432;46.924;7.114;2023-06-14T05:06:00;14.50;1.00
22532;DHT22;11432;46.924;7.114;2023-06-14T05:08:26;14.50;1.00
22532;DHT22;11432;46.924;7.114;2023-06-14T05:10:52;14.50;99.90
22532;DHT22;11432;46.924;7.114;2023-06-14T05:13:18;14.40;1.00
22532;DHT22;11432;46.924;7.114;2023-06-14T05:15:44;14.50;99.90
22532;DHT22;11432;46.924;7.114;2023-06-14T05:18:10;14.50;99.90
22532;DHT22;11432;46.924;7.114;2023-06-14T05:20:35;14.60;99.90
22532;DHT22;11432;46.924;7.114;2023-06-14T05:23:02;14.80;99.90
22532;DHT22;11432;46.924;7.114;2023-06-14T05:25:28;15.10;99.90
22532;DHT22;11432;46.924;7.114;2023-06-14T05:27:54;15.50;99.90
22532;DHT22;11432;46.924;7.114;2023-06-14T05:30:20;15.70;1.00
22532;DHT22;11432;46.924;7.114;2023-06-14T05:32:46;15.70;99.90
22532;DHT22;11432;46.924;7.114;2023-06-14T05:35:12;15.80;99.90
22532;DHT22;11432;46.924;7.114;2023-06-14T05:37:37;15.90;99.90
22532;DHT22;11432;46.924;7.114;2023-06-14T05:40:04;16.10;1.00
22532;DHT22;11432;46.924;7.114;2023-06-14T05:42:31;16.10;99.90
22532;DHT22;11432;46.924;7.114;2023-06-14T05:44:57;16.10;1.00
22532;DHT22;11432;46.924;7.114;2023-06-14T05:47:22;16.20;99.90
22532;DHT22;11432;46.924;7.114;2023-06-14T05:52:17;16.10;1.00
22532;DHT22;11432;46.924;7.114;2023-06-14T05:54:42;16.10;99.90
22532;DHT22;11432;46.924;7.114;2023-06-14T05:58:15;16.30;1.00
22532;DHT22;11432;46.924;7.114;2023-06-14T06:00:40;16.30;1.00
22532;DHT22;11432;46.924;7.114;2023-06-14T06:03:06;16.70;99.90
22532;DHT22;11432;46.924;7.114;2023-06-14T06:05:34;16.80;1.00
22532;DHT22;11432;46.924;7.114;2023-06-14T06:08:00;16.70;1.00
22532;DHT22;11432;46.924;7.114;2023-06-14T06:10:26;16.70;1.00
22532;DHT22;11432;46.924;7.114;2023-06-14T06:12:51;16.90;1.00
22532;DHT22;11432;46.924;7.114;2023-06-14T06:15:17;16.90;1.00
22532;DHT22;11432;46.924;7.114;2023-06-14T06:17:44;17.10;1.00
22532;DHT22;11432;46.924;7.114;2023-06-14T06:20:10;17.20;1.00
22532;DHT22;11432;46.924;7.114;2023-06-14T06:22:37;17.10;1.00
22532;DHT22;11432;46.924;7.114;2023-06-14T06:25:02;17.20;1.00
22532;DHT22;11432;46.924;7.114;2023-06-14T06:27:28;17.20;1.00
22532;DHT22;11432;46.924;7.114;2023-06-14T06:29:54;17.20;1.00
22532;DHT22;11432;46.924;7.114;2023-06-14T06:32:20;17.20;1.00
22532;DHT22;11432;46.924;7.114;2023-06-14T06:34:45;17.10;1.00
22532;DHT22;11432;46.924;7.114;2023-06-14T06:37:11;17.20;1.00
22532;DHT22;11432;46.924;7.114;2023-06-14T06:39:37;17.30;1.00
22532;DHT22;11432;46.924;7.114;2023-06-14T06:42:03;17.40;1.00
22532;DHT22;11432;46.924;7.114;2023-06-14T06:44:28;17.40;1.00
22532;DHT22;11432;46.924;7.114;2023-06-14T06:46:54;17.30;1.00
22532;DHT22;11432;46.924;7.114;2023-06-14T06:49:20;17.30;1.00
22532;DHT22;11432;46.924;7.114;2023-06-14T06:52:03;17.30;1.00
22532;DHT22;11432;46.924;7.114;2023-06-14T06:54:28;17.40;99.90
22532;DHT22;11432;46.924;7.114;2023-06-14T06:56:54;17.40;1.00
22532;DHT22;11432;46.924;7.114;2023-06-14T06:59:20;17.50;99.90
22532;DHT22;11432;46.924;7.114;2023-06-14T07:01:46;17.60;99.90
22532;DHT22;11432;46.924;7.114;2023-06-14T07:04:12;17.70;99.90
22532;DHT22;11432;46.924;7.114;2023-06-14T07:06:38;17.70;99.90
22532;DHT22;11432;46.924;7.114;2023-06-14T07:09:03;17.80;99.90
22532;DHT22;11432;46.924;7.114;2023-06-14T07:11:32;17.90;99.90
22532;DHT22;11432;46.924;7.114;2023-06-14T07:13:57;18.00;99.90
22532;DHT22;11432;46.924;7.114;2023-06-14T07:16:23;18.00;1.00
22532;DHT22;11432;46.924;7.114;2023-06-14T07:18:48;18.20;99.90
22532;DHT22;11432;46.924;7.114;2023-06-14T07:21:14;18.30;1.00
22532;DHT22;11432;46.924;7.114;2023-06-14T07:23:40;18.40;1.00
22532;DHT22;11432;46.924;7.114;2023-06-14T07:26:05;18.50;1.00
22532;DHT22;11432;46.924;7.114;2023-06-14T07:28:31;18.80;1.00
22532;DHT22;11432;46.924;7.114;2023-06-14T07:30:56;19.00;99.90
22532;DHT22;11432;46.924;7.114;2023-06-14T07:33:22;19.20;1.00
22532;DHT22;11432;46.924;7.114;2023-06-14T07:35:48;19.40;1.00
22532;DHT22;11432;46.924;7.114;2023-06-14T07:38:14;19.60;1.00
22532;DHT22;11432;46.924;7.114;2023-06-14T07:40:40;19.70;1.00
22532;DHT22;11432;46.924;7.114;2023-06-14T07:43:06;19.80;99.90
22532;DHT22;11432;46.924;7.114;2023-06-14T07:45:31;20.00;1.00
22532;DHT22;11432;46.924;7.114;2023-06-14T07:47:57;20.20;99.90
22532;DHT22;11432;46.924;7.114;2023-06-14T07:50:23;20.30;99.90
22532;DHT22;11432;46.924;7.114;2023-06-14T07:52:48;20.50;1.00
22532;DHT22;11432;46.924;7.114;2023-06-14T07:55:14;20.60;1.00
22532;DHT22;11432;46.924;7.114;2023-06-14T07:57:40;20.60;1.00
22532;DHT22;11432;46.924;7.114;2023-06-14T08:00:06;20.70;1.00
22532;DHT22;11432;46.924;7.114;2023-06-14T08:02:32;20.60;1.00
22532;DHT22;11432;46.924;7.114;2023-06-14T08:04:58;20.80;1.00
22532;DHT22;11432;46.924;7.114;2023-06-14T08:07:24;20.90;1.00
22532;DHT22;11432;46.924;7.114;2023-06-14T08:09:50;21.00;1.00
22532;DHT22;11432;46.924;7.114;2023-06-14T08:12:15;20.90;1.00
22532;DHT22;11432;46.924;7.114;2023-06-14T08:14:42;21.00;1.00
22532;DHT22;11432;46.924;7.114;2023-06-14T08:17:08;21.10;1.00
22532;DHT22;11432;46.924;7.114;2023-06-14T08:19:33;21.00;1.00
22532;DHT22;11432;46.924;7.114;2023-06-14T08:21:59;21.00;1.00
22532;DHT22;11432;46.924;7.114;2023-06-14T08:24:25;21.10;1.00
22532;DHT22;11432;46.924;7.114;2023-06-14T08:26:53;21.30;1.00
22532;DHT22;11432;46.924;7.114;2023-06-14T08:29:19;21.30;1.00
22532;DHT22;11432;46.924;7.114;2023-06-14T08:31:45;21.50;1.00
22532;DHT22;11432;46.924;7.114;2023-06-14T08:34:10;21.50;1.00
22532;DHT22;11432;46.924;7.114;2023-06-14T08:36:36;21.40;1.00
22532;DHT22;11432;46.924;7.114;2023-06-14T08:39:02;21.60;1.00
22532;DHT22;11432;46.924;7.114;2023-06-14T08:41:28;21.70;1.00
22532;DHT22;11432;46.924;7.114;2023-06-14T08:43:55;22.00;1.00
22532;DHT22;11432;46.924;7.114;2023-06-14T08:46:21;21.90;1.00
22532;DHT22;11432;46.924;7.114;2023-06-14T08:48:51;22.00;1.00
22532;DHT22;11432;46.924;7.114;2023-06-14T08:51:21;22.20;1.00
22532;DHT22;11432;46.924;7.114;2023-06-14T08:53:53;22.30;1.00
22532;DHT22;11432;46.924;7.114;2023-06-14T08:56:20;22.40;1.00
22532;DHT22;11432;46.924;7.114;2023-06-14T08:58:47;22.50;1.00
22532;DHT22;11432;46.924;7.114;2023-06-14T09:01:13;22.70;1.00
22532;DHT22;11432;46.924;7.114;2023-06-14T09:03:42;22.90;1.00
22532;DHT22;11432;46.924;7.114;2023-06-14T09:06:09;22.80;1.00
22532;DHT22;11432;46.924;7.114;2023-06-14T09:08:41;22.80;1.00
22532;DHT22;11432;46.924;7.114;2023-06-14T09:11:08;23.00;1.00
22532;DHT22;11432;46.924;7.114;2023-06-14T09:13:34;23.00;1.00
22532;DHT22;11432;46.924;7.114;2023-06-14T09:16:00;23.00;1.00
22532;DHT22;11432;46.924;7.114;2023-06-14T09:21:07;23.30;1.00
22532;DHT22;11432;46.924;7.114;2023-06-14T09:23:35;23.60;1.00
22532;DHT22;11432;46.924;7.114;2023-06-14T09:26:02;23.70;1.00
22532;DHT22;11432;46.924;7.114;2023-06-14T09:28:31;23.40;1.00
22532;DHT22;11432;46.924;7.114;2023-06-14T09:30:57;23.40;1.00
22532;DHT22;11432;46.924;7.114;2023-06-14T09:33:22;23.50;1.00
22532;DHT22;11432;46.924;7.114;2023-06-14T09:35:51;23.60;1.00
22532;DHT22;11432;46.924;7.114;2023-06-14T09:38:18;23.90;1.00
22532;DHT22;11432;46.924;7.114;2023-06-14T09:40:43;23.80;1.00
22532;DHT22;11432;46.924;7.114;2023-06-14T09:43:09;24.00;1.00
22532;DHT22;11432;46.924;7.114;2023-06-14T09:45:35;24.20;1.00
22532;DHT22;11432;46.924;7.114;2023-06-14T09:48:01;24.30;1.00
22532;DHT22;11432;46.924;7.114;2023-06-14T09:50:27;24.40;1.00
22532;DHT22;11432;46.924;7.114;2023-06-14T09:52:59;24.60;1.00
22532;DHT22;11432;46.924;7.114;2023-06-14T09:55:29;24.60;1.00
22532;DHT22;11432;46.924;7.114;2023-06-14T09:57:57;24.90;1.00
22532;DHT22;11432;46.924;7.114;2023-06-14T10:00:23;24.80;1.00
22532;DHT22;11432;46.924;7.114;2023-06-14T10:02:54;24.80;1.00
22532;DHT22;11432;46.924;7.114;2023-06-14T10:05:22;25.00;1.00
22532;DHT22;11432;46.924;7.114;2023-06-14T10:07:56;25.00;1.00
22532;DHT22;11432;46.924;7.114;2023-06-14T10:10:25;25.10;1.00
22532;DHT22;11432;46.924;7.114;2023-06-14T10:12:51;25.30;1.00
22532;DHT22;11432;46.924;7.114;2023-06-14T10:15:22;25.10;1.00
22532;DHT22;11432;46.924;7.114;2023-06-14T10:17:54;25.20;1.00
22532;DHT22;11432;46.924;7.114;2023-06-14T10:20:35;25.20;1.00
22532;DHT22;11432;46.924;7.114;2023-06-14T10:23:23;25.20;1.00
22532;DHT22;11432;46.924;7.114;2023-06-14T10:25:50;25.10;1.00
22532;DHT22;11432;46.924;7.114;2023-06-14T10:28:20;25.20;1.00
22532;DHT22;11432;46.924;7.114;2023-06-14T10:31:10;25.40;1.00
22532;DHT22;11432;46.924;7.114;2023-06-14T10:39:13;25.80;1.00
22532;DHT22;11432;46.924;7.114;2023-06-14T10:41:41;26.00;1.00
22532;DHT22;11432;46.924;7.114;2023-06-14T10:46:48;26.00;1.00
22532;DHT22;11432;46.924;7.114;2023-06-14T10:49:17;26.00;1.00
22532;DHT22;11432;46.924;7.114;2023-06-14T10:51:50;25.90;1.00
22532;DHT22;11432;46.924;7.114;2023-06-14T10:54:17;26.00;1.00
22532;DHT22;11432;46.924;7.114;2023-06-14T10:56:53;26.10;1.00
22532;DHT22;11432;46.924;7.114;2023-06-14T10:59:20;26.30;1.00
22532;DHT22;11432;46.924;7.114;2023-06-14T11:04:47;26.20;1.00
22532;DHT22;11432;46.924;7.114;2023-06-14T11:12:39;26.50;1.00
22532;DHT22;11432;46.924;7.114;2023-06-14T11:15:07;26.50;1.00
22532;DHT22;11432;46.924;7.114;2023-06-14T11:17:33;26.50;1.00
22532;DHT22;11432;46.924;7.114;2023-06-14T11:20:12;26.80;1.00
22532;DHT22;11432;46.924;7.114;2023-06-14T11:22:44;26.80;1.00
22532;DHT22;11432;46.924;7.114;2023-06-14T11:25:14;27.10;1.00
22532;DHT22;11432;46.924;7.114;2023-06-14T11:27:42;27.10;1.00
22532;DHT22;11432;46.924;7.114;2023-06-14T11:30:08;27.20;1.00
22532;DHT22;11432;46.924;7.114;2023-06-14T11:32:37;27.10;1.00
22532;DHT22;11432;46.924;7.114;2023-06-14T11:35:04;26.70;1.00
22532;DHT22;11432;46.924;7.114;2023-06-14T11:37:33;27.10;1.00
22532;DHT22;11432;46.924;7.114;2023-06-14T11:39:59;26.80;1.00
22532;DHT22;11432;46.924;7.114;2023-06-14T11:42:28;26.50;1.00
22532;DHT22;11432;46.924;7.114;2023-06-14T11:44:54;26.60;1.00
22532;DHT22;11432;46.924;7.114;2023-06-14T11:47:23;27.00;1.00
22532;DHT22;11432;46.924;7.114;2023-06-14T11:49:48;27.00;1.00
22532;DHT22;11432;46.924;7.114;2023-06-14T11:52:14;26.90;1.00
22532;DHT22;11432;46.924;7.114;2023-06-14T11:54:40;26.90;1.00
22532;DHT22;11432;46.924;7.114;2023-06-14T11:57:07;26.90;1.00
22532;DHT22;11432;46.924;7.114;2023-06-14T11:59:41;27.10;1.00
22532;DHT22;11432;46.924;7.114;2023-06-14T12:02:07;27.70;1.00
22532;DHT22;11432;46.924;7.114;2023-06-14T12:04:33;28.10;1.00
22532;DHT22;11432;46.924;7.114;2023-06-14T12:07:12;27.90;1.00
22532;DHT22;11432;46.924;7.114;2023-06-14T12:12:25;27.60;1.00
22532;DHT22;11432;46.924;7.114;2023-06-14T12:14:55;27.50;1.00
22532;DHT22;11432;46.924;7.114;2023-06-14T12:17:21;27.70;1.00
22532;DHT22;11432;46.924;7.114;2023-06-14T12:19:49;27.60;1.00
22532;DHT22;11432;46.924;7.114;2023-06-14T12:22:16;27.60;1.00
22532;DHT22;11432;46.924;7.114;2023-06-14T12:24:45;27.60;1.00
22532;DHT22;11432;46.924;7.114;2023-06-14T12:27:12;27.70;1.00
22532;DHT22;11432;46.924;7.114;2023-06-14T12:29:41;27.90;1.00
22532;DHT22;11432;46.924;7.114;2023-06-14T12:32:09;28.00;1.00
22532;DHT22;11432;46.924;7.114;2023-06-14T12:34:34;28.10;1.00
22532;DHT22;11432;46.924;7.114;2023-06-14T12:37:01;28.20;1.00
22532;DHT22;11432;46.924;7.114;2023-06-14T12:39:29;28.20;1.00
22532;DHT22;11432;46.924;7.114;2023-06-14T12:41:57;28.70;1.00
22532;DHT22;11432;46.924;7.114;2023-06-14T12:44:22;28.80;1.00
22532;DHT22;11432;46.924;7.114;2023-06-14T12:46:48;28.80;1.00
22532;DHT22;11432;46.924;7.114;2023-06-14T12:49:16;28.80;1.00
22532;DHT22;11432;46.924;7.114;2023-06-14T12:51:42;28.80;1.00
22532;DHT22;11432;46.924;7.114;2023-06-14T12:54:08;28.50;1.00
22532;DHT22;11432;46.924;7.114;2023-06-14T12:56:34;29.00;1.00
22532;DHT22;11432;46.924;7.114;2023-06-14T12:59:00;29.70;1.00
22532;DHT22;11432;46.924;7.114;2023-06-14T13:01:25;30.10;1.00
22532;DHT22;11432;46.924;7.114;2023-06-14T13:03:51;30.60;1.00
22532;DHT22;11432;46.924;7.114;2023-06-14T13:06:21;30.70;1.00
22532;DHT22;11432;46.924;7.114;2023-06-14T13:08:48;30.80;1.00
22532;DHT22;11432;46.924;7.114;2023-06-14T13:11:13;31.50;1.00
22532;DHT22;11432;46.924;7.114;2023-06-14T13:13:39;31.90;1.00
22532;DHT22;11432;46.924;7.114;2023-06-14T13:16:05;31.70;1.00
22532;DHT22;11432;46.924;7.114;2023-06-14T13:18:31;31.90;1.00
22532;DHT22;11432;46.924;7.114;2023-06-14T13:20:56;32.20;1.00
22532;DHT22;11432;46.924;7.114;2023-06-14T13:23:22;32.50;1.00
22532;DHT22;11432;46.924;7.114;2023-06-14T13:25:47;32.40;1.00
22532;DHT22;11432;46.924;7.114;2023-06-14T13:28:15;32.30;1.00
22532;DHT22;11432;46.924;7.114;2023-06-14T13:30:40;32.00;1.00
22532;DHT22;11432;46.924;7.114;2023-06-14T13:33:06;31.90;1.00
22532;DHT22;11432;46.924;7.114;2023-06-14T13:35:32;32.50;1.00
22532;DHT22;11432;46.924;7.114;2023-06-14T13:37:57;32.20;1.00
22532;DHT22;11432;46.924;7.114;2023-06-14T13:40:23;31.90;1.00
22532;DHT22;11432;46.924;7.114;2023-06-14T13:42:48;32.40;1.00
22532;DHT22;11432;46.924;7.114;2023-06-14T13:45:15;33.00;1.00
22532;DHT22;11432;46.924;7.114;2023-06-14T13:47:41;33.10;1.00
22532;DHT22;11432;46.924;7.114;2023-06-14T13:50:07;33.10;1.00
22532;DHT22;11432;46.924;7.114;2023-06-14T13:52:32;32.20;1.00
22532;DHT22;11432;46.924;7.114;2023-06-14T13:54:58;32.50;1.00
22532;DHT22;11432;46.924;7.114;2023-06-14T13:57:25;32.70;1.00
22532;DHT22;11432;46.924;7.114;2023-06-14T13:59:51;32.70;1.00
22532;DHT22;11432;46.924;7.114;2023-06-14T14:02:18;33.00;1.00
22532;DHT22;11432;46.924;7.114;2023-06-14T14:04:44;33.30;1.00
22532;DHT22;11432;46.924;7.114;2023-06-14T14:07:16;33.50;1.00
22532;DHT22;11432;46.924;7.114;2023-06-14T14:09:42;33.60;1.00
22532;DHT22;11432;46.924;7.114;2023-06-14T14:12:08;33.70;1.00
22532;DHT22;11432;46.924;7.114;2023-06-14T14:14:34;33.90;1.00
22532;DHT22;11432;46.924;7.114;2023-06-14T14:17:00;33.80;1.00
22532;DHT22;11432;46.924;7.114;2023-06-14T14:19:25;34.00;1.00
22532;DHT22;11432;46.924;7.114;2023-06-14T14:21:51;34.40;1.00
22532;DHT22;11432;46.924;7.114;2023-06-14T14:24:18;34.20;1.00
22532;DHT22;11432;46.924;7.114;2023-06-14T14:26:44;33.90;1.00
22532;DHT22;11432;46.924;7.114;2023-06-14T14:29:12;33.80;1.00
22532;DHT22;11432;46.924;7.114;2023-06-14T14:31:38;33.70;1.00
22532;DHT22;11432;46.924;7.114;2023-06-14T14:34:04;34.00;1.00
22532;DHT22;11432;46.924;7.114;2023-06-14T14:36:29;34.20;1.00
22532;DHT22;11432;46.924;7.114;2023-06-14T14:38:55;34.40;1.00
22532;DHT22;11432;46.924;7.114;2023-06-14T14:41:21;34.60;1.00
22532;DHT22;11432;46.924;7.114;2023-06-14T14:43:46;34.60;1.00
22532;DHT22;11432;46.924;7.114;2023-06-14T14:46:12;34.30;1.00
22532;DHT22;11432;46.924;7.114;2023-06-14T14:48:38;34.40;1.00
22532;DHT22;11432;46.924;7.114;2023-06-14T14:51:03;34.50;1.00
22532;DHT22;11432;46.924;7.114;2023-06-14T14:53:29;34.70;1.00
22532;DHT22;11432;46.924;7.114;2023-06-14T14:55:54;34.60;1.00
22532;DHT22;11432;46.924;7.114;2023-06-14T14:58:20;34.50;1.00
22532;DHT22;11432;46.924;7.114;2023-06-14T15:00:46;34.10;1.00
22532;DHT22;11432;46.924;7.114;2023-06-14T15:03:12;34.40;1.00
22532;DHT22;11432;46.924;7.114;2023-06-14T15:05:38;34.30;1.00
22532;DHT22;11432;46.924;7.114;2023-06-14T15:08:04;34.20;1.00
22532;DHT22;11432;46.924;7.114;2023-06-14T15:10:35;34.40;1.00
22532;DHT22;11432;46.924;7.114;2023-06-14T15:13:01;34.10;1.00
22532;DHT22;11432;46.924;7.114;2023-06-14T15:15:27;34.10;1.00
22532;DHT22;11432;46.924;7.114;2023-06-14T15:17:52;34.10;1.00
22532;DHT22;11432;46.924;7.114;2023-06-14T15:20:18;34.30;1.00
22532;DHT22;11432;46.924;7.114;2023-06-14T15:22:44;34.10;1.00
22532;DHT22;11432;46.924;7.114;2023-06-14T15:25:09;33.60;1.00
22532;DHT22;11432;46.924;7.114;2023-06-14T15:27:35;33.30;1.00
22532;DHT22;11432;46.924;7.114;2023-06-14T15:30:01;32.80;1.00
22532;DHT22;11432;46.924;7.114;2023-06-14T15:32:27;33.40;1.00
22532;DHT22;11432;46.924;7.114;2023-06-14T15:34:52;33.60;1.00
22532;DHT22;11432;46.924;7.114;2023-06-14T15:37:18;33.80;1.00
22532;DHT22;11432;46.924;7.114;2023-06-14T15:39:43;33.60;1.00
22532;DHT22;11432;46.924;7.114;2023-06-14T15:42:09;33.30;1.00
22532;DHT22;11432;46.924;7.114;2023-06-14T15:44:35;33.80;1.00
22532;DHT22;11432;46.924;7.114;2023-06-14T15:47:02;34.10;1.00
22532;DHT22;11432;46.924;7.114;2023-06-14T15:49:27;34.00;1.00
22532;DHT22;11432;46.924;7.114;2023-06-14T15:51:53;33.90;1.00
22532;DHT22;11432;46.924;7.114;2023-06-14T15:54:19;33.50;1.00
22532;DHT22;11432;46.924;7.114;2023-06-14T15:56:44;33.40;1.00
22532;DHT22;11432;46.924;7.114;2023-06-14T15:59:10;33.60;1.00
22532;DHT22;11432;46.924;7.114;2023-06-14T16:01:36;33.10;1.00
22532;DHT22;11432;46.924;7.114;2023-06-14T16:04:01;32.90;1.00
22532;DHT22;11432;46.924;7.114;2023-06-14T16:06:27;33.10;1.00